sensor_id;sensor_type;location;lat;lon;timestamp;pressure;altitude;pressure_sealevel;temperature;humidity
21956;BME280;11142;49.930;8.606;2023-05-11T00:02:23;99849.59;;;12.63;100.00
21956;BME280;11142;49.930;8.606;2023-05-11T00:04:52;99849.34;;;12.66;100.00
21956;BME280;11142;49.930;8.606;2023-05-11T00:07:20;99855.16;;;12.70;100.00
21956;BME280;11142;49.930;8.606;2023-05-11T00:09:48;99852.19;;;12.63;100.00
21956;BME280;11142;49.930;8.606;2023-05-11T00:12:16;99855.38;;;12.56;100.00
21956;BME280;11142;49.930;8.606;2023-05-11T00:14:43;99853.81;;;12.53;100.00
21956;BME280;11142;49.930;8.606;2023-05-11T00:17:11;99854.94;;;12.62;100.00
21956;BME280;11142;49.930;8.606;2023-05-11T00:19:39;99855.25;;;12.57;100.00
21956;BME280;11142;49.930;8.606;2023-05-11T00:22:08;99851.25;;;12.64;100.00
21956;BME280;11142;49.930;8.606;2023-05-11T00:24:36;99857.63;;;12.60;100.00
21956;BME280;11142;49.930;8.606;2023-05-11T00:27:04;99852.56;;;12.59;100.00
21956;BME280;11142;49.930;8.606;2023-05-11T00:29:32;99847.69;;;12.54;100.00
21956;BME280;11142;49.930;8.606;2023-05-11T00:32:00;99850.00;;;12.46;100.00
21956;BME280;11142;49.930;8.606;2023-05-11T00:34:27;99840.53;;;12.34;100.00
21956;BME280;11142;49.930;8.606;2023-05-11T00:36:55;99847.16;;;12.38;100.00
21956;BME280;11142;49.930;8.606;2023-05-11T00:39:24;99846.94;;;12.41;100.00
21956;BME280;11142;49.930;8.606;2023-05-11T00:41:52;99843.88;;;12.36;100.00
21956;BME280;11142;49.930;8.606;2023-05-11T00:44:20;99846.84;;;12.43;100.00
21956;BME280;11142;49.930;8.606;2023-05-11T00:46:48;99842.44;;;12.32;100.00
21956;BME280;11142;49.930;8.606;2023-05-11T00:49:16;99850.09;;;12.34;100.00
21956;BME280;11142;49.930;8.606;2023-05-11T00:51:46;99849.97;;;12.24;100.00
21956;BME280;11142;49.930;8.606;2023-05-11T00:54:14;99839.44;;;12.25;100.00
21956;BME280;11142;49.930;8.606;2023-05-11T00:56:43;99838.06;;;12.33;100.00
21956;BME280;11142;49.930;8.606;2023-05-11T00:59:11;99840.75;;;12.31;100.00
21956;BME280;11142;49.930;8.606;2023-05-11T01:04:11;99838.53;;;12.27;100.00
21956;BME280;11142;49.930;8.606;2023-05-11T01:06:40;99848.88;;;12.15;100.00
21956;BME280;11142;49.930;8.606;2023-05-11T01:09:17;99843.44;;;12.18;100.00
21956;BME280;11142;49.930;8.606;2023-05-11T01:11:52;99842.28;;;12.22;100.00
21956;BME280;11142;49.930;8.606;2023-05-11T01:14:22;99841.91;;;12.16;100.00
21956;BME280;11142;49.930;8.606;2023-05-11T01:16:54;99838.09;;;12.09;100.00
21956;BME280;11142;49.930;8.606;2023-05-11T01:19:28;99834.09;;;12.16;100.00
21956;BME280;11142;49.930;8.606;2023-05-11T01:21:59;99835.50;;;12.09;100.00
21956;BME280;11142;49.930;8.606;2023-05-11T01:24:30;99832.97;;;11.96;100.00
21956;BME280;11142;49.930;8.606;2023-05-11T01:27:17;99832.72;;;11.99;100.00
21956;BME280;11142;49.930;8.606;2023-05-11T01:32:35;99831.31;;;11.95;100.00
21956;BME280;11142;49.930;8.606;2023-05-11T01:35:09;99832.47;;;11.91;100.00
21956;BME280;11142;49.930;8.606;2023-05-11T01:37:40;99827.88;;;11.95;100.00
21956;BME280;11142;49.930;8.606;2023-05-11T01:40:14;99836.38;;;11.97;100.00
21956;BME280;11142;49.930;8.606;2023-05-11T01:42:44;99835.16;;;11.90;100.00
21956;BME280;11142;49.930;8.606;2023-05-11T01:45:14;99835.75;;;11.82;100.00
21956;BME280;11142;49.930;8.606;2023-05-11T01:47:45;99835.84;;;11.81;100.00
21956;BME280;11142;49.930;8.606;2023-05-11T01:50:15;99835.63;;;11.84;100.00
21956;BME280;11142;49.930;8.606;2023-05-11T01:52:44;99836.53;;;11.95;100.00
21956;BME280;11142;49.930;8.606;2023-05-11T01:55:14;99836.22;;;11.87;100.00
21956;BME280;11142;49.930;8.606;2023-05-11T01:57:44;99836.94;;;11.89;100.00
21956;BME280;11142;49.930;8.606;2023-05-11T02:00:14;99838.06;;;11.98;100.00
21956;BME280;11142;49.930;8.606;2023-05-11T02:02:44;99837.59;;;12.04;100.00
21956;BME280;11142;49.930;8.606;2023-05-11T02:05:17;99845.06;;;12.08;100.00
21956;BME280;11142;49.930;8.606;2023-05-11T02:07:47;99845.66;;;12.12;100.00
21956;BME280;11142;49.930;8.606;2023-05-11T02:10:17;99857.75;;;12.13;100.00
21956;BME280;11142;49.930;8.606;2023-05-11T02:12:45;99855.84;;;12.15;100.00
21956;BME280;11142;49.930;8.606;2023-05-11T02:15:20;99850.41;;;12.18;100.00
21956;BME280;11142;49.930;8.606;2023-05-11T02:17:51;99858.22;;;12.18;100.00
21956;BME280;11142;49.930;8.606;2023-05-11T02:20:20;99846.50;;;12.12;100.00
21956;BME280;11142;49.930;8.606;2023-05-11T02:22:49;99859.41;;;12.14;100.00
21956;BME280;11142;49.930;8.606;2023-05-11T02:25:17;99856.69;;;12.15;100.00
21956;BME280;11142;49.930;8.606;2023-05-11T02:27:46;99854.69;;;12.19;100.00
21956;BME280;11142;49.930;8.606;2023-05-11T02:30:14;99852.47;;;12.25;100.00
21956;BME280;11142;49.930;8.606;2023-05-11T02:32:45;99856.97;;;12.23;100.00
21956;BME280;11142;49.930;8.606;2023-05-11T02:35:17;99847.72;;;12.19;100.00
21956;BME280;11142;49.930;8.606;2023-05-11T02:37:48;99847.47;;;12.22;100.00
21956;BME280;11142;49.930;8.606;2023-05-11T02:40:18;99849.25;;;12.22;100.00
21956;BME280;11142;49.930;8.606;2023-05-11T02:42:48;99841.13;;;12.03;100.00
21956;BME280;11142;49.930;8.606;2023-05-11T02:45:22;99837.59;;;12.04;100.00
21956;BME280;11142;49.930;8.606;2023-05-11T02:47:53;99836.16;;;12.00;100.00
21956;BME280;11142;49.930;8.606;2023-05-11T02:50:26;99831.66;;;12.02;100.00
21956;BME280;11142;49.930;8.606;2023-05-11T02:52:57;99833.25;;;12.04;100.00
21956;BME280;11142;49.930;8.606;2023-05-11T02:55:27;99832.19;;;12.07;100.00
21956;BME280;11142;49.930;8.606;2023-05-11T02:57:56;99836.53;;;11.95;100.00
21956;BME280;11142;49.930;8.606;2023-05-11T03:00:24;99835.53;;;11.85;100.00
21956;BME280;11142;49.930;8.606;2023-05-11T03:02:53;99842.81;;;11.80;100.00
21956;BME280;11142;49.930;8.606;2023-05-11T03:05:22;99841.78;;;11.83;100.00
21956;BME280;11142;49.930;8.606;2023-05-11T03:07:52;99837.44;;;11.70;100.00
21956;BME280;11142;49.930;8.606;2023-05-11T03:10:21;99830.56;;;11.69;100.00
21956;BME280;11142;49.930;8.606;2023-05-11T03:12:49;99831.22;;;11.73;100.00
21956;BME280;11142;49.930;8.606;2023-05-11T03:15:18;99830.38;;;11.73;100.00
21956;BME280;11142;49.930;8.606;2023-05-11T03:17:48;99837.13;;;11.75;100.00
21956;BME280;11142;49.930;8.606;2023-05-11T03:20:17;99845.84;;;11.74;100.00
21956;BME280;11142;49.930;8.606;2023-05-11T03:22:46;99839.84;;;11.61;100.00
21956;BME280;11142;49.930;8.606;2023-05-11T03:25:19;99839.03;;;11.60;100.00
21956;BME280;11142;49.930;8.606;2023-05-11T03:27:51;99837.75;;;11.66;100.00
21956;BME280;11142;49.930;8.606;2023-05-11T03:30:20;99833.25;;;11.68;100.00
21956;BME280;11142;49.930;8.606;2023-05-11T03:32:55;99829.56;;;11.72;100.00
21956;BME280;11142;49.930;8.606;2023-05-11T03:35:24;99841.28;;;11.65;100.00
21956;BME280;11142;49.930;8.606;2023-05-11T03:37:54;99838.03;;;11.50;100.00
21956;BME280;11142;49.930;8.606;2023-05-11T03:40:26;99833.53;;;11.52;100.00
21956;BME280;11142;49.930;8.606;2023-05-11T03:42:57;99834.41;;;11.64;100.00
21956;BME280;11142;49.930;8.606;2023-05-11T03:45:28;99839.53;;;11.65;100.00
21956;BME280;11142;49.930;8.606;2023-05-11T03:47:56;99844.31;;;11.59;100.00
21956;BME280;11142;49.930;8.606;2023-05-11T03:50:25;99842.22;;;11.40;100.00
21956;BME280;11142;49.930;8.606;2023-05-11T03:52:53;99833.19;;;11.33;100.00
21956;BME280;11142;49.930;8.606;2023-05-11T03:55:23;99835.88;;;11.44;100.00
21956;BME280;11142;49.930;8.606;2023-05-11T03:57:55;99824.13;;;11.39;100.00
21956;BME280;11142;49.930;8.606;2023-05-11T04:00:23;99826.44;;;11.54;100.00
21956;BME280;11142;49.930;8.606;2023-05-11T04:02:51;99826.63;;;11.64;100.00
21956;BME280;11142;49.930;8.606;2023-05-11T04:05:21;99829.72;;;11.82;100.00
21956;BME280;11142;49.930;8.606;2023-05-11T04:07:49;99832.09;;;11.85;100.00
21956;BME280;11142;49.930;8.606;2023-05-11T04:10:18;99830.47;;;11.95;100.00
21956;BME280;11142;49.930;8.606;2023-05-11T04:12:46;99835.34;;;11.99;100.00
21956;BME280;11142;49.930;8.606;2023-05-11T04:15:15;99845.56;;;12.13;100.00
21956;BME280;11142;49.930;8.606;2023-05-11T04:17:43;99846.88;;;12.19;100.00
21956;BME280;11142;49.930;8.606;2023-05-11T04:20:11;99847.25;;;12.25;100.00
21956;BME280;11142;49.930;8.606;2023-05-11T04:22:39;99841.25;;;12.36;100.00
21956;BME280;11142;49.930;8.606;2023-05-11T04:25:07;99848.84;;;12.39;100.00
21956;BME280;11142;49.930;8.606;2023-05-11T04:27:35;99853.44;;;12.47;100.00
21956;BME280;11142;49.930;8.606;2023-05-11T04:30:04;99856.19;;;12.56;100.00
21956;BME280;11142;49.930;8.606;2023-05-11T04:32:34;99860.28;;;12.71;100.00
21956;BME280;11142;49.930;8.606;2023-05-11T04:35:02;99852.69;;;12.91;100.00
21956;BME280;11142;49.930;8.606;2023-05-11T04:37:34;99859.13;;;13.09;100.00
21956;BME280;11142;49.930;8.606;2023-05-11T04:40:04;99856.00;;;13.04;100.00
21956;BME280;11142;49.930;8.606;2023-05-11T04:42:39;99862.66;;;13.30;100.00
21956;BME280;11142;49.930;8.606;2023-05-11T04:45:14;99877.59;;;13.39;100.00
21956;BME280;11142;49.930;8.606;2023-05-11T04:47:47;99871.16;;;13.54;100.00
21956;BME280;11142;49.930;8.606;2023-05-11T04:50:15;99877.53;;;13.72;100.00
21956;BME280;11142;49.930;8.606;2023-05-11T04:52:44;99882.72;;;13.83;100.00
21956;BME280;11142;49.930;8.606;2023-05-11T04:55:12;99875.38;;;13.89;100.00
21956;BME280;11142;49.930;8.606;2023-05-11T04:57:41;99869.91;;;13.92;100.00
21956;BME280;11142;49.930;8.606;2023-05-11T05:00:10;99873.41;;;14.02;100.00
21956;BME280;11142;49.930;8.606;2023-05-11T05:02:38;99873.09;;;13.95;100.00
21956;BME280;11142;49.930;8.606;2023-05-11T05:05:08;99875.38;;;13.89;100.00
21956;BME280;11142;49.930;8.606;2023-05-11T05:07:36;99881.72;;;13.96;100.00
21956;BME280;11142;49.930;8.606;2023-05-11T05:10:04;99881.63;;;13.97;100.00
21956;BME280;11142;49.930;8.606;2023-05-11T05:12:34;99885.06;;;13.87;100.00
21956;BME280;11142;49.930;8.606;2023-05-11T05:15:02;99880.69;;;13.87;100.00
21956;BME280;11142;49.930;8.606;2023-05-11T05:17:31;99879.59;;;14.01;100.00
21956;BME280;11142;49.930;8.606;2023-05-11T05:19:59;99893.91;;;14.06;100.00
21956;BME280;11142;49.930;8.606;2023-05-11T05:22:28;99888.28;;;13.90;100.00
21956;BME280;11142;49.930;8.606;2023-05-11T05:24:56;99890.53;;;13.83;100.00
21956;BME280;11142;49.930;8.606;2023-05-11T05:27:24;99893.91;;;14.06;100.00
21956;BME280;11142;49.930;8.606;2023-05-11T05:29:53;99897.25;;;14.40;100.00
21956;BME280;11142;49.930;8.606;2023-05-11T05:32:23;99901.41;;;14.63;100.00
21956;BME280;11142;49.930;8.606;2023-05-11T05:34:52;99900.25;;;14.77;100.00
21956;BME280;11142;49.930;8.606;2023-05-11T05:37:20;99906.19;;;14.58;100.00
21956;BME280;11142;49.930;8.606;2023-05-11T05:39:49;99906.88;;;14.60;100.00
21956;BME280;11142;49.930;8.606;2023-05-11T05:42:16;99909.25;;;14.63;100.00
21956;BME280;11142;49.930;8.606;2023-05-11T05:44:44;99909.63;;;14.79;100.00
21956;BME280;11142;49.930;8.606;2023-05-11T05:47:12;99909.03;;;14.97;100.00
21956;BME280;11142;49.930;8.606;2023-05-11T05:49:40;99910.97;;;14.74;100.00
21956;BME280;11142;49.930;8.606;2023-05-11T05:52:08;99908.88;;;14.68;100.00
21956;BME280;11142;49.930;8.606;2023-05-11T05:54:39;99911.13;;;14.82;100.00
21956;BME280;11142;49.930;8.606;2023-05-11T05:57:08;99914.22;;;14.87;100.00
21956;BME280;11142;49.930;8.606;2023-05-11T06:02:23;99918.00;;;15.04;100.00
21956;BME280;11142;49.930;8.606;2023-05-11T06:04:52;99920.53;;;15.45;100.00
21956;BME280;11142;49.930;8.606;2023-05-11T06:07:20;99923.16;;;15.85;100.00
21956;BME280;11142;49.930;8.606;2023-05-11T06:09:48;99929.31;;;15.65;100.00
21956;BME280;11142;49.930;8.606;2023-05-11T06:12:18;99928.38;;;15.45;100.00
21956;BME280;11142;49.930;8.606;2023-05-11T06:14:49;99929.28;;;15.55;100.00
21956;BME280;11142;49.930;8.606;2023-05-11T06:17:17;99932.06;;;15.63;100.00
21956;BME280;11142;49.930;8.606;2023-05-11T06:19:45;99922.81;;;15.59;100.00
21956;BME280;11142;49.930;8.606;2023-05-11T06:22:13;99927.69;;;15.43;100.00
21956;BME280;11142;49.930;8.606;2023-05-11T06:24:41;99931.19;;;15.53;100.00
21956;BME280;11142;49.930;8.606;2023-05-11T06:27:09;99931.81;;;15.46;100.00
21956;BME280;11142;49.930;8.606;2023-05-11T06:29:39;99936.06;;;15.67;100.00
21956;BME280;11142;49.930;8.606;2023-05-11T06:32:09;99927.66;;;15.73;100.00
21956;BME280;11142;49.930;8.606;2023-05-11T06:34:37;99930.22;;;16.04;100.00
21956;BME280;11142;49.930;8.606;2023-05-11T06:37:07;99923.63;;;16.19;100.00
21956;BME280;11142;49.930;8.606;2023-05-11T06:39:34;99936.75;;;16.67;100.00
21956;BME280;11142;49.930;8.606;2023-05-11T06:42:06;99937.09;;;17.00;100.00
21956;BME280;11142;49.930;8.606;2023-05-11T06:44:35;99936.75;;;17.23;100.00
21956;BME280;11142;49.930;8.606;2023-05-11T06:47:05;99935.94;;;17.13;100.00
21956;BME280;11142;49.930;8.606;2023-05-11T06:49:33;99936.41;;;17.08;100.00
21956;BME280;11142;49.930;8.606;2023-05-11T06:52:01;99933.50;;;17.02;100.00
21956;BME280;11142;49.930;8.606;2023-05-11T06:54:28;99939.28;;;17.15;100.00
21956;BME280;11142;49.930;8.606;2023-05-11T06:56:56;99939.59;;;17.02;100.00
21956;BME280;11142;49.930;8.606;2023-05-11T06:59:25;99937.22;;;17.09;100.00
21956;BME280;11142;49.930;8.606;2023-05-11T07:01:52;99943.38;;;17.27;100.00
21956;BME280;11142;49.930;8.606;2023-05-11T07:04:22;99933.69;;;17.37;100.00
21956;BME280;11142;49.930;8.606;2023-05-11T07:06:50;99937.72;;;17.31;100.00
21956;BME280;11142;49.930;8.606;2023-05-11T07:09:17;99938.25;;;17.72;100.00
21956;BME280;11142;49.930;8.606;2023-05-11T07:11:45;99941.31;;;18.12;100.00
21956;BME280;11142;49.930;8.606;2023-05-11T07:14:13;99939.44;;;18.40;100.00
21956;BME280;11142;49.930;8.606;2023-05-11T07:16:41;99939.66;;;18.11;100.00
21956;BME280;11142;49.930;8.606;2023-05-11T07:19:09;99938.78;;;18.38;99.92
21956;BME280;11142;49.930;8.606;2023-05-11T07:21:39;99938.38;;;18.68;95.06
21956;BME280;11142;49.930;8.606;2023-05-11T07:24:07;99945.75;;;18.82;95.17
21956;BME280;11142;49.930;8.606;2023-05-11T07:26:35;99951.53;;;19.37;92.26
21956;BME280;11142;49.930;8.606;2023-05-11T07:29:03;99947.31;;;19.86;84.67
21956;BME280;11142;49.930;8.606;2023-05-11T07:31:30;99945.03;;;19.24;88.45
21956;BME280;11142;49.930;8.606;2023-05-11T07:33:59;99956.69;;;19.21;92.14
21956;BME280;11142;49.930;8.606;2023-05-11T07:36:26;99963.75;;;19.80;87.08
21956;BME280;11142;49.930;8.606;2023-05-11T07:38:56;99959.69;;;20.02;82.96
21956;BME280;11142;49.930;8.606;2023-05-11T07:41:26;99953.97;;;19.65;85.82
21956;BME280;11142;49.930;8.606;2023-05-11T07:43:55;99955.91;;;19.54;85.79
21956;BME280;11142;49.930;8.606;2023-05-11T07:46:23;99957.72;;;19.96;85.10
21956;BME280;11142;49.930;8.606;2023-05-11T07:48:50;99957.91;;;20.10;83.07
21956;BME280;11142;49.930;8.606;2023-05-11T07:51:38;99952.75;;;20.51;80.58
21956;BME280;11142;49.930;8.606;2023-05-11T07:54:08;99958.00;;;20.75;77.39
21956;BME280;11142;49.930;8.606;2023-05-11T07:56:39;99953.88;;;20.89;78.00
21956;BME280;11142;49.930;8.606;2023-05-11T07:59:08;99962.63;;;21.05;75.98
21956;BME280;11142;49.930;8.606;2023-05-11T08:01:36;99951.25;;;21.21;75.83
21956;BME280;11142;49.930;8.606;2023-05-11T08:04:04;99947.50;;;21.85;73.53
21956;BME280;11142;49.930;8.606;2023-05-11T08:06:33;99953.00;;;21.84;70.22
21956;BME280;11142;49.930;8.606;2023-05-11T08:09:01;99951.75;;;21.63;72.48
21956;BME280;11142;49.930;8.606;2023-05-11T08:11:31;99951.19;;;21.76;71.94
21956;BME280;11142;49.930;8.606;2023-05-11T08:13:59;99950.38;;;21.37;74.42
21956;BME280;11142;49.930;8.606;2023-05-11T08:16:26;99946.91;;;21.28;74.31
21956;BME280;11142;49.930;8.606;2023-05-11T08:18:54;99952.19;;;21.36;72.64
21956;BME280;11142;49.930;8.606;2023-05-11T08:21:22;99942.44;;;21.37;73.35
21956;BME280;11142;49.930;8.606;2023-05-11T08:23:50;99948.78;;;20.95;76.38
21956;BME280;11142;49.930;8.606;2023-05-11T08:26:18;99946.38;;;21.41;75.55
21956;BME280;11142;49.930;8.606;2023-05-11T08:28:48;99949.41;;;22.07;73.46
21956;BME280;11142;49.930;8.606;2023-05-11T08:31:17;99956.25;;;22.24;69.02
21956;BME280;11142;49.930;8.606;2023-05-11T08:33:45;99956.41;;;22.00;72.47
21956;BME280;11142;49.930;8.606;2023-05-11T08:36:14;99954.94;;;22.20;72.08
21956;BME280;11142;49.930;8.606;2023-05-11T08:38:42;99952.03;;;22.61;70.70
21956;BME280;11142;49.930;8.606;2023-05-11T08:41:14;99950.63;;;22.73;66.33
21956;BME280;11142;49.930;8.606;2023-05-11T08:43:41;99961.09;;;21.35;70.65
21956;BME280;11142;49.930;8.606;2023-05-11T08:46:11;99953.88;;;20.32;84.68
21956;BME280;11142;49.930;8.606;2023-05-11T08:48:41;99956.63;;;21.36;80.17
21956;BME280;11142;49.930;8.606;2023-05-11T08:51:11;99955.75;;;22.74;73.10
21956;BME280;11142;49.930;8.606;2023-05-11T08:53:44;99956.75;;;23.84;67.61
21956;BME280;11142;49.930;8.606;2023-05-11T08:56:15;99958.06;;;24.09;61.39
21956;BME280;11142;49.930;8.606;2023-05-11T08:58:42;99968.53;;;24.53;60.28
21956;BME280;11142;49.930;8.606;2023-05-11T09:01:12;99960.25;;;23.41;60.56
21956;BME280;11142;49.930;8.606;2023-05-11T09:03:41;99965.63;;;22.04;67.79
21956;BME280;11142;49.930;8.606;2023-05-11T09:06:12;99958.47;;;22.58;71.12
21956;BME280;11142;49.930;8.606;2023-05-11T09:08:41;99957.72;;;23.10;67.42
21956;BME280;11142;49.930;8.606;2023-05-11T09:11:10;99958.88;;;23.59;65.66
21956;BME280;11142;49.930;8.606;2023-05-11T09:13:39;99960.94;;;23.93;64.76
21956;BME280;11142;49.930;8.606;2023-05-11T09:16:07;99959.91;;;24.45;62.91
21956;BME280;11142;49.930;8.606;2023-05-11T09:18:57;99966.63;;;24.26;59.06
21956;BME280;11142;49.930;8.606;2023-05-11T09:21:26;99961.00;;;22.52;68.46
21956;BME280;11142;49.930;8.606;2023-05-11T09:23:56;99956.31;;;23.51;66.87
21956;BME280;11142;49.930;8.606;2023-05-11T09:26:26;99961.53;;;24.10;63.64
21956;BME280;11142;49.930;8.606;2023-05-11T09:28:55;99959.44;;;24.83;59.51
21956;BME280;11142;49.930;8.606;2023-05-11T09:31:36;99952.63;;;22.71;66.26
21956;BME280;11142;49.930;8.606;2023-05-11T09:34:10;99952.22;;;23.49;68.49
21956;BME280;11142;49.930;8.606;2023-05-11T09:36:39;99953.72;;;20.34;78.00
21956;BME280;11142;49.930;8.606;2023-05-11T09:39:07;99951.44;;;20.79;88.83
21956;BME280;11142;49.930;8.606;2023-05-11T09:41:41;99956.25;;;21.55;76.88
21956;BME280;11142;49.930;8.606;2023-05-11T09:44:09;99952.16;;;22.22;71.96
21956;BME280;11142;49.930;8.606;2023-05-11T09:46:38;99957.47;;;23.19;72.58
21956;BME280;11142;49.930;8.606;2023-05-11T09:49:06;99957.41;;;23.71;64.55
21956;BME280;11142;49.930;8.606;2023-05-11T09:51:36;99954.38;;;23.60;63.67
21956;BME280;11142;49.930;8.606;2023-05-11T09:54:15;99959.50;;;24.26;65.33
21956;BME280;11142;49.930;8.606;2023-05-11T09:56:44;99955.94;;;23.84;61.60
21956;BME280;11142;49.930;8.606;2023-05-11T09:59:14;99953.00;;;21.37;75.91
21956;BME280;11142;49.930;8.606;2023-05-11T10:01:42;99952.69;;;22.40;75.06
21956;BME280;11142;49.930;8.606;2023-05-11T10:04:14;99949.09;;;23.45;69.42
21956;BME280;11142;49.930;8.606;2023-05-11T10:06:51;99951.25;;;23.12;65.69
21956;BME280;11142;49.930;8.606;2023-05-11T10:09:21;99948.34;;;23.07;65.85
21956;BME280;11142;49.930;8.606;2023-05-11T10:11:51;99949.16;;;19.26;92.23
21956;BME280;11142;49.930;8.606;2023-05-11T10:14:21;99955.56;;;19.91;93.24
21956;BME280;11142;49.930;8.606;2023-05-11T10:16:52;99947.22;;;19.62;92.54
21956;BME280;11142;49.930;8.606;2023-05-11T10:19:20;99949.28;;;18.73;100.00
21956;BME280;11142;49.930;8.606;2023-05-11T10:21:50;99948.38;;;20.09;95.04
21956;BME280;11142;49.930;8.606;2023-05-11T10:24:19;99935.44;;;20.40;89.12
21956;BME280;11142;49.930;8.606;2023-05-11T10:26:48;99943.19;;;21.61;79.88
21956;BME280;11142;49.930;8.606;2023-05-11T10:29:17;99944.50;;;22.50;76.76
21956;BME280;11142;49.930;8.606;2023-05-11T10:31:46;99939.13;;;23.47;69.05
21956;BME280;11142;49.930;8.606;2023-05-11T10:34:15;99945.81;;;24.08;64.68
21956;BME280;11142;49.930;8.606;2023-05-11T10:36:43;99940.47;;;24.65;60.61
21956;BME280;11142;49.930;8.606;2023-05-11T10:39:14;99941.16;;;25.23;59.00
21956;BME280;11142;49.930;8.606;2023-05-11T10:41:48;99945.50;;;25.30;58.39
21956;BME280;11142;49.930;8.606;2023-05-11T10:44:29;99947.75;;;25.33;59.37
21956;BME280;11142;49.930;8.606;2023-05-11T10:47:15;99941.31;;;25.21;58.19
21956;BME280;11142;49.930;8.606;2023-05-11T10:49:50;99940.00;;;25.38;56.98
21956;BME280;11142;49.930;8.606;2023-05-11T10:52:39;99942.91;;;25.78;57.06
21956;BME280;11142;49.930;8.606;2023-05-11T10:55:15;99942.31;;;25.89;54.94
21956;BME280;11142;49.930;8.606;2023-05-11T10:57:54;99934.41;;;26.09;56.43
21956;BME280;11142;49.930;8.606;2023-05-11T11:03:23;99929.09;;;27.40;50.61
21956;BME280;11142;49.930;8.606;2023-05-11T11:05:51;99933.47;;;27.85;51.17
21956;BME280;11142;49.930;8.606;2023-05-11T11:08:20;99938.25;;;27.70;50.82
21956;BME280;11142;49.930;8.606;2023-05-11T11:10:50;99934.09;;;26.90;54.81
21956;BME280;11142;49.930;8.606;2023-05-11T11:13:18;99935.72;;;26.72;58.09
21956;BME280;11142;49.930;8.606;2023-05-11T11:18:35;99930.94;;;26.15;57.83
21956;BME280;11142;49.930;8.606;2023-05-11T11:21:03;99931.50;;;26.04;57.91
21956;BME280;11142;49.930;8.606;2023-05-11T11:23:48;99929.94;;;26.16;58.11
21956;BME280;11142;49.930;8.606;2023-05-11T11:29:07;99916.81;;;25.54;61.37
21956;BME280;11142;49.930;8.606;2023-05-11T11:31:36;99929.28;;;25.60;56.52
21956;BME280;11142;49.930;8.606;2023-05-11T11:39:46;99916.91;;;24.56;60.26
21956;BME280;11142;49.930;8.606;2023-05-11T11:42:42;99918.78;;;23.48;63.93
21956;BME280;11142;49.930;8.606;2023-05-11T11:45:29;99920.97;;;24.52;63.30
21956;BME280;11142;49.930;8.606;2023-05-11T11:48:12;99918.25;;;25.56;58.47
21956;BME280;11142;49.930;8.606;2023-05-11T11:50:42;99915.72;;;24.58;58.48
21956;BME280;11142;49.930;8.606;2023-05-11T11:53:11;99912.50;;;25.18;61.08
21956;BME280;11142;49.930;8.606;2023-05-11T11:55:46;99912.09;;;21.71;73.49
21956;BME280;11142;49.930;8.606;2023-05-11T12:01:05;99909.56;;;23.94;71.89
21956;BME280;11142;49.930;8.606;2023-05-11T12:03:34;99913.78;;;24.95;62.89
21956;BME280;11142;49.930;8.606;2023-05-11T12:06:03;99913.75;;;25.22;59.91
21956;BME280;11142;49.930;8.606;2023-05-11T12:08:32;99905.56;;;25.17;61.21
21956;BME280;11142;49.930;8.606;2023-05-11T12:11:00;99906.75;;;25.08;60.19
21956;BME280;11142;49.930;8.606;2023-05-11T12:13:29;99917.41;;;25.49;57.86
21956;BME280;11142;49.930;8.606;2023-05-11T12:16:07;99913.63;;;25.71;54.86
21956;BME280;11142;49.930;8.606;2023-05-11T12:18:36;99912.63;;;25.85;54.73
21956;BME280;11142;49.930;8.606;2023-05-11T12:21:06;99912.59;;;25.79;56.11
21956;BME280;11142;49.930;8.606;2023-05-11T12:23:34;99902.16;;;25.71;55.06
21956;BME280;11142;49.930;8.606;2023-05-11T12:26:03;99899.25;;;21.99;69.87
21956;BME280;11142;49.930;8.606;2023-05-11T12:28:30;99901.59;;;21.94;81.77
21956;BME280;11142;49.930;8.606;2023-05-11T12:30:59;99886.28;;;22.35;85.56
21956;BME280;11142;49.930;8.606;2023-05-11T12:33:28;99898.56;;;22.73;85.77
21956;BME280;11142;49.930;8.606;2023-05-11T12:35:56;99898.31;;;22.60;88.13
21956;BME280;11142;49.930;8.606;2023-05-11T12:38:23;99903.22;;;22.86;94.03
21956;BME280;11142;49.930;8.606;2023-05-11T12:40:52;99898.94;;;23.14;83.88
21956;BME280;11142;49.930;8.606;2023-05-11T12:43:21;99897.16;;;23.80;82.35
21956;BME280;11142;49.930;8.606;2023-05-11T12:45:49;99896.66;;;20.97;88.54
21956;BME280;11142;49.930;8.606;2023-05-11T12:48:17;99895.84;;;20.81;100.00
21956;BME280;11142;49.930;8.606;2023-05-11T12:50:46;99884.88;;;21.32;100.00
21956;BME280;11142;49.930;8.606;2023-05-11T12:53:15;99891.88;;;20.12;96.61
21956;BME280;11142;49.930;8.606;2023-05-11T12:55:43;99884.78;;;20.93;98.85
21956;BME280;11142;49.930;8.606;2023-05-11T12:58:12;99890.34;;;21.31;92.32
21956;BME280;11142;49.930;8.606;2023-05-11T13:00:50;99885.28;;;20.81;95.91
21956;BME280;11142;49.930;8.606;2023-05-11T13:03:20;99881.19;;;21.49;92.10
21956;BME280;11142;49.930;8.606;2023-05-11T13:05:49;99882.28;;;22.16;89.67
21956;BME280;11142;49.930;8.606;2023-05-11T13:08:18;99884.16;;;21.77;83.62
21956;BME280;11142;49.930;8.606;2023-05-11T13:10:45;99885.47;;;18.63;100.00
21956;BME280;11142;49.930;8.606;2023-05-11T13:13:24;99874.59;;;17.87;100.00
21956;BME280;11142;49.930;8.606;2023-05-11T13:15:53;99877.19;;;18.40;100.00
21956;BME280;11142;49.930;8.606;2023-05-11T13:18:22;99874.13;;;17.47;100.00
21956;BME280;11142;49.930;8.606;2023-05-11T13:21:04;99872.06;;;17.41;100.00
21956;BME280;11142;49.930;8.606;2023-05-11T13:23:32;99869.78;;;18.36;100.00
21956;BME280;11142;49.930;8.606;2023-05-11T13:26:00;99867.38;;;18.25;100.00
21956;BME280;11142;49.930;8.606;2023-05-11T13:28:28;99863.13;;;18.06;100.00
21956;BME280;11142;49.930;8.606;2023-05-11T13:30:59;99861.69;;;16.75;100.00
21956;BME280;11142;49.930;8.606;2023-05-11T13:33:27;99851.41;;;15.87;100.00
21956;BME280;11142;49.930;8.606;2023-05-11T13:35:56;99840.94;;;16.16;100.00